sensor_id;sensor_type;location;lat;lon;timestamp;pressure;altitude;pressure_sealevel;temperature;humidity
5996;BME280;3026;53.612;7.278;2024-02-28T00:00:17;101846.91;;;2.89;100.00
5996;BME280;3026;53.612;7.278;2024-02-28T00:02:44;101850.53;;;2.88;100.00
5996;BME280;3026;53.612;7.278;2024-02-28T00:05:11;101851.50;;;2.87;100.00
5996;BME280;3026;53.612;7.278;2024-02-28T00:07:39;101841.59;;;2.88;100.00
5996;BME280;3026;53.612;7.278;2024-02-28T00:10:07;101855.00;;;2.89;100.00
5996;BME280;3026;53.612;7.278;2024-02-28T00:12:35;101853.25;;;2.88;100.00
5996;BME280;3026;53.612;7.278;2024-02-28T00:15:10;101838.84;;;2.89;100.00
5996;BME280;3026;53.612;7.278;2024-02-28T00:17:39;101837.06;;;2.88;100.00
5996;BME280;3026;53.612;7.278;2024-02-28T00:20:08;101827.16;;;2.89;100.00
5996;BME280;3026;53.612;7.278;2024-02-28T00:22:37;101826.28;;;2.88;100.00
5996;BME280;3026;53.612;7.278;2024-02-28T00:25:06;101830.75;;;2.89;100.00
5996;BME280;3026;53.612;7.278;2024-02-28T00:27:34;101835.34;;;2.87;100.00
5996;BME280;3026;53.612;7.278;2024-02-28T00:30:03;101827.16;;;2.89;100.00
5996;BME280;3026;53.612;7.278;2024-02-28T00:32:33;101842.47;;;2.88;100.00
5996;BME280;3026;53.612;7.278;2024-02-28T00:35:00;101837.06;;;2.88;100.00
5996;BME280;3026;53.612;7.278;2024-02-28T00:37:29;101831.69;;;2.88;100.00
5996;BME280;3026;53.612;7.278;2024-02-28T00:39:57;101834.38;;;2.88;100.00
5996;BME280;3026;53.612;7.278;2024-02-28T00:42:25;101830.81;;;2.88;100.00
5996;BME280;3026;53.612;7.278;2024-02-28T00:44:52;101824.56;;;2.87;100.00
5996;BME280;3026;53.612;7.278;2024-02-28T00:47:19;101827.25;;;2.87;100.00
5996;BME280;3026;53.612;7.278;2024-02-28T00:49:50;101836.22;;;2.88;100.00
5996;BME280;3026;53.612;7.278;2024-02-28T00:52:17;101837.06;;;2.88;100.00
5996;BME280;3026;53.612;7.278;2024-02-28T00:54:44;101829.97;;;2.87;100.00
5996;BME280;3026;53.612;7.278;2024-02-28T00:57:12;101823.59;;;2.88;100.00
5996;BME280;3026;53.612;7.278;2024-02-28T00:59:39;101833.44;;;2.89;100.00
5996;BME280;3026;53.612;7.278;2024-02-28T01:02:06;101820.03;;;2.88;100.00
5996;BME280;3026;53.612;7.278;2024-02-28T01:04:34;101820.91;;;2.88;100.00
5996;BME280;3026;53.612;7.278;2024-02-28T01:07:03;101822.84;;;2.86;100.00
5996;BME280;3026;53.612;7.278;2024-02-28T01:09:37;101817.47;;;2.86;100.00
5996;BME280;3026;53.612;7.278;2024-02-28T01:12:05;101819.19;;;2.87;100.00
5996;BME280;3026;53.612;7.278;2024-02-28T01:14:32;101809.47;;;2.85;100.00
5996;BME280;3026;53.612;7.278;2024-02-28T01:16:59;101808.72;;;2.83;100.00
5996;BME280;3026;53.612;7.278;2024-02-28T01:19:27;101807.09;;;2.80;100.00
5996;BME280;3026;53.612;7.278;2024-02-28T01:21:54;101818.84;;;2.79;100.00
5996;BME280;3026;53.612;7.278;2024-02-28T01:24:27;101826.13;;;2.77;100.00
5996;BME280;3026;53.612;7.278;2024-02-28T01:26:54;101823.63;;;2.74;100.00
5996;BME280;3026;53.612;7.278;2024-02-28T01:29:22;101821.25;;;2.70;100.00
5996;BME280;3026;53.612;7.278;2024-02-28T01:31:49;101818.66;;;2.68;100.00
5996;BME280;3026;53.612;7.278;2024-02-28T01:34:16;101818.81;;;2.65;100.00
5996;BME280;3026;53.612;7.278;2024-02-28T01:36:44;101819.69;;;2.66;100.00
5996;BME280;3026;53.612;7.278;2024-02-28T01:39:11;101817.09;;;2.64;100.00
5996;BME280;3026;53.612;7.278;2024-02-28T01:41:39;101819.03;;;2.62;100.00
5996;BME280;3026;53.612;7.278;2024-02-28T01:44:09;101813.66;;;2.62;100.00
5996;BME280;3026;53.612;7.278;2024-02-28T01:46:35;101813.66;;;2.62;100.00
5996;BME280;3026;53.612;7.278;2024-02-28T01:49:06;101809.22;;;2.61;100.00
5996;BME280;3026;53.612;7.278;2024-02-28T01:51:34;101803.94;;;2.59;100.00
5996;BME280;3026;53.612;7.278;2024-02-28T01:54:01;101804.81;;;2.60;100.00
5996;BME280;3026;53.612;7.278;2024-02-28T01:56:29;101808.25;;;2.62;100.00
5996;BME280;3026;53.612;7.278;2024-02-28T01:58:58;101803.09;;;2.59;100.00
5996;BME280;3026;53.612;7.278;2024-02-28T02:01:26;101812.03;;;2.59;100.00
5996;BME280;3026;53.612;7.278;2024-02-28T02:03:53;101806.53;;;2.61;100.00
5996;BME280;3026;53.612;7.278;2024-02-28T02:06:21;101802.00;;;2.61;100.00
5996;BME280;3026;53.612;7.278;2024-02-28T02:08:48;101803.75;;;2.62;100.00
5996;BME280;3026;53.612;7.278;2024-02-28T02:11:18;101814.50;;;2.62;100.00
5996;BME280;3026;53.612;7.278;2024-02-28T02:13:49;101808.25;;;2.62;100.00
5996;BME280;3026;53.612;7.278;2024-02-28T02:16:23;101803.75;;;2.62;100.00
5996;BME280;3026;53.612;7.278;2024-02-28T02:18:52;101803.75;;;2.62;100.00
5996;BME280;3026;53.612;7.278;2024-02-28T02:21:23;101808.25;;;2.62;100.00
5996;BME280;3026;53.612;7.278;2024-02-28T02:23:52;101800.19;;;2.62;100.00
5996;BME280;3026;53.612;7.278;2024-02-28T02:26:19;101802.13;;;2.60;100.00
5996;BME280;3026;53.612;7.278;2024-02-28T02:28:47;101806.53;;;2.61;100.00
5996;BME280;3026;53.612;7.278;2024-02-28T02:31:14;101803.84;;;2.61;100.00
5996;BME280;3026;53.612;7.278;2024-02-28T02:33:41;101792.09;;;2.62;100.00
5996;BME280;3026;53.612;7.278;2024-02-28T02:36:11;101783.06;;;2.63;100.00
5996;BME280;3026;53.612;7.278;2024-02-28T02:38:38;101788.44;;;2.63;100.00
5996;BME280;3026;53.612;7.278;2024-02-28T02:41:07;101786.50;;;2.65;100.00
5996;BME280;3026;53.612;7.278;2024-02-28T02:43:35;101797.50;;;2.62;100.00
5996;BME280;3026;53.612;7.278;2024-02-28T02:46:02;101792.97;;;2.62;100.00
5996;BME280;3026;53.612;7.278;2024-02-28T02:48:29;101794.91;;;2.60;100.00
5996;BME280;3026;53.612;7.278;2024-02-28T02:50:56;101789.50;;;2.60;100.00
5996;BME280;3026;53.612;7.278;2024-02-28T02:53:24;101786.72;;;2.62;100.00
5996;BME280;3026;53.612;7.278;2024-02-28T02:55:51;101787.59;;;2.62;100.00
5996;BME280;3026;53.612;7.278;2024-02-28T02:58:22;101791.25;;;2.61;100.00
5996;BME280;3026;53.612;7.278;2024-02-28T03:00:49;101786.72;;;2.62;100.00
5996;BME280;3026;53.612;7.278;2024-02-28T03:03:17;101781.22;;;2.63;100.00
5996;BME280;3026;53.612;7.278;2024-02-28T03:05:44;101781.13;;;2.65;100.00
5996;BME280;3026;53.612;7.278;2024-02-28T03:08:12;101783.75;;;2.67;100.00
5996;BME280;3026;53.612;7.278;2024-02-28T03:10:40;101777.28;;;2.69;100.00
5996;BME280;3026;53.612;7.278;2024-02-28T03:13:08;101769.97;;;2.71;100.00
5996;BME280;3026;53.612;7.278;2024-02-28T03:15:36;101780.75;;;2.71;100.00
5996;BME280;3026;53.612;7.278;2024-02-28T03:18:05;101784.31;;;2.72;100.00
5996;BME280;3026;53.612;7.278;2024-02-28T03:20:32;101782.47;;;2.72;100.00
5996;BME280;3026;53.612;7.278;2024-02-28T03:23:00;101781.50;;;2.73;100.00
5996;BME280;3026;53.612;7.278;2024-02-28T03:25:28;101779.69;;;2.74;100.00
5996;BME280;3026;53.612;7.278;2024-02-28T03:28:00;101780.53;;;2.74;100.00
5996;BME280;3026;53.612;7.278;2024-02-28T03:30:27;101776.88;;;2.75;100.00
5996;BME280;3026;53.612;7.278;2024-02-28T03:32:58;101784.78;;;2.78;100.00
5996;BME280;3026;53.612;7.278;2024-02-28T03:35:25;101773.03;;;2.79;100.00
5996;BME280;3026;53.612;7.278;2024-02-28T03:37:52;101783.81;;;2.79;100.00
5996;BME280;3026;53.612;7.278;2024-02-28T03:40:25;101788.13;;;2.82;100.00
5996;BME280;3026;53.612;7.278;2024-02-28T03:42:52;101789.00;;;2.82;100.00
5996;BME280;3026;53.612;7.278;2024-02-28T03:45:19;101790.72;;;2.83;100.00
5996;BME280;3026;53.612;7.278;2024-02-28T03:47:46;101795.03;;;2.86;100.00
5996;BME280;3026;53.612;7.278;2024-02-28T03:50:17;101795.91;;;2.86;100.00
5996;BME280;3026;53.612;7.278;2024-02-28T03:52:44;101793.97;;;2.88;100.00
5996;BME280;3026;53.612;7.278;2024-02-28T03:55:11;101796.59;;;2.90;100.00
5996;BME280;3026;53.612;7.278;2024-02-28T03:57:38;101793.78;;;2.91;100.00
5996;BME280;3026;53.612;7.278;2024-02-28T04:00:06;101790.13;;;2.92;100.00
5996;BME280;3026;53.612;7.278;2024-02-28T04:02:40;101795.41;;;2.94;100.00
5996;BME280;3026;53.612;7.278;2024-02-28T04:05:07;101784.63;;;2.94;100.00
5996;BME280;3026;53.612;7.278;2024-02-28T04:07:37;101782.81;;;2.95;100.00
5996;BME280;3026;53.612;7.278;2024-02-28T04:10:05;101784.53;;;2.96;100.00
5996;BME280;3026;53.612;7.278;2024-02-28T04:12:32;101797.03;;;2.97;100.00
5996;BME280;3026;53.612;7.278;2024-02-28T04:15:01;101798.00;;;2.96;100.00
5996;BME280;3026;53.612;7.278;2024-02-28T04:17:29;101791.66;;;2.97;100.00
5996;BME280;3026;53.612;7.278;2024-02-28T04:19:56;101809.53;;;2.98;100.00
5996;BME280;3026;53.612;7.278;2024-02-28T04:22:24;101792.41;;;2.99;100.00
5996;BME280;3026;53.612;7.278;2024-02-28T04:24:53;101790.47;;;3.01;100.00
5996;BME280;3026;53.612;7.278;2024-02-28T04:27:20;101785.88;;;3.03;100.00
5996;BME280;3026;53.612;7.278;2024-02-28T04:29:49;101782.22;;;3.04;100.00
5996;BME280;3026;53.612;7.278;2024-02-28T04:32:17;101773.16;;;3.05;100.00
5996;BME280;3026;53.612;7.278;2024-02-28T04:34:44;101775.66;;;3.08;100.00
5996;BME280;3026;53.612;7.278;2024-02-28T04:37:11;101780.06;;;3.09;100.00
5996;BME280;3026;53.612;7.278;2024-02-28T04:39:38;101776.41;;;3.10;100.00
5996;BME280;3026;53.612;7.278;2024-02-28T04:42:07;101780.81;;;3.11;100.00
5996;BME280;3026;53.612;7.278;2024-02-28T04:44:36;101774.47;;;3.12;100.00
5996;BME280;3026;53.612;7.278;2024-02-28T04:47:04;101772.56;;;3.14;100.00
5996;BME280;3026;53.612;7.278;2024-02-28T04:49:31;101785.06;;;3.15;100.00
5996;BME280;3026;53.612;7.278;2024-02-28T04:51:58;101788.72;;;3.14;100.00
5996;BME280;3026;53.612;7.278;2024-02-28T04:54:26;101790.44;;;3.15;100.00
5996;BME280;3026;53.612;7.278;2024-02-28T04:56:53;101796.69;;;3.15;100.00
5996;BME280;3026;53.612;7.278;2024-02-28T04:59:23;101799.28;;;3.17;100.00
5996;BME280;3026;53.612;7.278;2024-02-28T05:01:51;101800.06;;;3.19;100.00
5996;BME280;3026;53.612;7.278;2024-02-28T05:04:19;101794.66;;;3.19;100.00
5996;BME280;3026;53.612;7.278;2024-02-28T05:06:46;101788.31;;;3.20;100.00
5996;BME280;3026;53.612;7.278;2024-02-28T05:09:15;101791.75;;;3.22;100.00
5996;BME280;3026;53.612;7.278;2024-02-28T05:11:41;101783.56;;;3.23;100.00
5996;BME280;3026;53.612;7.278;2024-02-28T05:14:10;101793.41;;;3.25;100.00
5996;BME280;3026;53.612;7.278;2024-02-28T05:16:40;101797.72;;;3.27;100.00
5996;BME280;3026;53.612;7.278;2024-02-28T05:19:07;101789.63;;;3.27;100.00
5996;BME280;3026;53.612;7.278;2024-02-28T05:21:39;101791.34;;;3.28;100.00
5996;BME280;3026;53.612;7.278;2024-02-28T05:24:07;101793.09;;;3.29;100.00
5996;BME280;3026;53.612;7.278;2024-02-28T05:26:35;101791.16;;;3.31;100.00
5996;BME280;3026;53.612;7.278;2024-02-28T05:29:01;101787.47;;;3.32;100.00
5996;BME280;3026;53.612;7.278;2024-02-28T05:31:29;101794.59;;;3.33;100.00
5996;BME280;3026;53.612;7.278;2024-02-28T05:33:59;101790.94;;;3.34;100.00
5996;BME280;3026;53.612;7.278;2024-02-28T05:36:28;101789.88;;;3.37;100.00
5996;BME280;3026;53.612;7.278;2024-02-28T05:38:56;101784.38;;;3.38;100.00
5996;BME280;3026;53.612;7.278;2024-02-28T05:41:24;101794.19;;;3.39;100.00
5996;BME280;3026;53.612;7.278;2024-02-28T05:43:51;101795.06;;;3.40;100.00
5996;BME280;3026;53.612;7.278;2024-02-28T05:46:20;101794.00;;;3.42;100.00
5996;BME280;3026;53.612;7.278;2024-02-28T05:48:47;101790.31;;;3.43;100.00
5996;BME280;3026;53.612;7.278;2024-02-28T05:51:16;101792.03;;;3.44;100.00
5996;BME280;3026;53.612;7.278;2024-02-28T05:53:46;101789.34;;;3.44;100.00
5996;BME280;3026;53.612;7.278;2024-02-28T05:56:13;101790.09;;;3.46;100.00
5996;BME280;3026;53.612;7.278;2024-02-28T05:58:43;101791.88;;;3.47;100.00
5996;BME280;3026;53.612;7.278;2024-02-28T06:01:12;101795.31;;;3.49;100.00
5996;BME280;3026;53.612;7.278;2024-02-28T06:03:41;101793.38;;;3.51;100.00
5996;BME280;3026;53.612;7.278;2024-02-28T06:06:08;101795.97;;;3.53;100.00
5996;BME280;3026;53.612;7.278;2024-02-28T06:08:39;101786.03;;;3.54;100.00
5996;BME280;3026;53.612;7.278;2024-02-28T06:11:07;101786.91;;;3.54;100.00
5996;BME280;3026;53.612;7.278;2024-02-28T06:13:44;101793.16;;;3.55;100.00
5996;BME280;3026;53.612;7.278;2024-02-28T06:16:14;101786.78;;;3.56;100.00
5996;BME280;3026;53.612;7.278;2024-02-28T06:18:43;101798.44;;;3.56;100.00
5996;BME280;3026;53.612;7.278;2024-02-28T06:21:10;101802.88;;;3.57;100.00
5996;BME280;3026;53.612;7.278;2024-02-28T06:23:40;101802.88;;;3.57;100.00
5996;BME280;3026;53.612;7.278;2024-02-28T06:26:07;101803.72;;;3.58;100.00
5996;BME280;3026;53.612;7.278;2024-02-28T06:28:41;101813.53;;;3.59;100.00
5996;BME280;3026;53.612;7.278;2024-02-28T06:31:13;101804.50;;;3.60;100.00
5996;BME280;3026;53.612;7.278;2024-02-28T06:33:40;101811.63;;;3.61;100.00
5996;BME280;3026;53.612;7.278;2024-02-28T06:36:08;101808.94;;;3.61;100.00
5996;BME280;3026;53.612;7.278;2024-02-28T06:38:34;101816.06;;;3.62;100.00
5996;BME280;3026;53.612;7.278;2024-02-28T06:41:04;101819.50;;;3.64;100.00
5996;BME280;3026;53.612;7.278;2024-02-28T06:43:33;101822.97;;;3.66;100.00
5996;BME280;3026;53.612;7.278;2024-02-28T06:46:01;101824.69;;;3.67;100.00
5996;BME280;3026;53.612;7.278;2024-02-28T06:48:28;101820.25;;;3.66;100.00
5996;BME280;3026;53.612;7.278;2024-02-28T06:50:56;101821.03;;;3.68;100.00
5996;BME280;3026;53.612;7.278;2024-02-28T06:53:24;101820.03;;;3.69;100.00
5996;BME280;3026;53.612;7.278;2024-02-28T06:55:52;101826.22;;;3.71;100.00
5996;BME280;3026;53.612;7.278;2024-02-28T06:58:20;101836.91;;;3.72;100.00
5996;BME280;3026;53.612;7.278;2024-02-28T07:00:52;101831.41;;;3.74;100.00
5996;BME280;3026;53.612;7.278;2024-02-28T07:03:19;101836.69;;;3.75;100.00
5996;BME280;3026;53.612;7.278;2024-02-28T07:05:47;101847.38;;;3.77;100.00
5996;BME280;3026;53.612;7.278;2024-02-28T07:08:14;101854.38;;;3.79;100.00
5996;BME280;3026;53.612;7.278;2024-02-28T07:10:41;101852.56;;;3.80;100.00
5996;BME280;3026;53.612;7.278;2024-02-28T07:13:09;101858.72;;;3.82;100.00
5996;BME280;3026;53.612;7.278;2024-02-28T07:15:39;101857.75;;;3.83;100.00
5996;BME280;3026;53.612;7.278;2024-02-28T07:18:07;101856.03;;;3.82;100.00
5996;BME280;3026;53.612;7.278;2024-02-28T07:20:37;101867.47;;;3.86;100.00
5996;BME280;3026;53.612;7.278;2024-02-28T07:23:04;101862.94;;;3.86;100.00
5996;BME280;3026;53.612;7.278;2024-02-28T07:25:31;101862.94;;;3.86;100.00
5996;BME280;3026;53.612;7.278;2024-02-28T07:27:59;101871.69;;;3.90;100.00
5996;BME280;3026;53.612;7.278;2024-02-28T07:30:29;101876.09;;;3.91;100.00
5996;BME280;3026;53.612;7.278;2024-02-28T07:32:57;101878.69;;;3.92;100.00
5996;BME280;3026;53.612;7.278;2024-02-28T07:35:25;101877.72;;;3.93;100.00
5996;BME280;3026;53.612;7.278;2024-02-28T07:37:52;101884.00;;;3.94;100.00
5996;BME280;3026;53.612;7.278;2024-02-28T07:40:19;101884.78;;;3.96;100.00
5996;BME280;3026;53.612;7.278;2024-02-28T07:42:47;101887.38;;;3.97;100.00
5996;BME280;3026;53.612;7.278;2024-02-28T07:45:15;101890.81;;;3.99;100.00
5996;BME280;3026;53.612;7.278;2024-02-28T07:47:42;101885.41;;;3.99;100.00
5996;BME280;3026;53.612;7.278;2024-02-28T07:50:11;101886.06;;;4.03;100.00
5996;BME280;3026;53.612;7.278;2024-02-28T07:52:40;101889.50;;;4.05;100.00
5996;BME280;3026;53.612;7.278;2024-02-28T07:55:07;101887.72;;;4.05;100.00
5996;BME280;3026;53.612;7.278;2024-02-28T07:57:36;101893.88;;;4.07;100.00
5996;BME280;3026;53.612;7.278;2024-02-28T08:00:03;101890.94;;;4.10;100.00
5996;BME280;3026;53.612;7.278;2024-02-28T08:02:30;101900.56;;;4.15;100.00
5996;BME280;3026;53.612;7.278;2024-02-28T08:04:59;101894.97;;;4.18;100.00
5996;BME280;3026;53.612;7.278;2024-02-28T08:07:29;101902.72;;;4.22;100.00
5996;BME280;3026;53.612;7.278;2024-02-28T08:09:56;101905.31;;;4.24;100.00
5996;BME280;3026;53.612;7.278;2024-02-28T08:12:24;101911.47;;;4.26;100.00
5996;BME280;3026;53.612;7.278;2024-02-28T08:14:51;101914.19;;;4.26;100.00
5996;BME280;3026;53.612;7.278;2024-02-28T08:17:19;101914.00;;;4.29;100.00
5996;BME280;3026;53.612;7.278;2024-02-28T08:19:48;101918.41;;;4.30;100.00
5996;BME280;3026;53.612;7.278;2024-02-28T08:22:15;101913.78;;;4.32;100.00
5996;BME280;3026;53.612;7.278;2024-02-28T08:24:44;101908.16;;;4.35;100.00
5996;BME280;3026;53.612;7.278;2024-02-28T08:27:12;101911.41;;;4.40;100.00
5996;BME280;3026;53.612;7.278;2024-02-28T08:29:40;101922.00;;;4.43;100.00
5996;BME280;3026;53.612;7.278;2024-02-28T08:32:10;101919.94;;;4.47;100.00
5996;BME280;3026;53.612;7.278;2024-02-28T08:34:43;101926.94;;;4.49;100.00
5996;BME280;3026;53.612;7.278;2024-02-28T08:37:13;101932.16;;;4.52;100.00
5996;BME280;3026;53.612;7.278;2024-02-28T08:39:40;101930.22;;;4.54;100.00
5996;BME280;3026;53.612;7.278;2024-02-28T08:42:16;101933.66;;;4.56;100.00
5996;BME280;3026;53.612;7.278;2024-02-28T08:44:43;101938.84;;;4.59;100.00
5996;BME280;3026;53.612;7.278;2024-02-28T08:47:13;101935.84;;;4.64;100.00
5996;BME280;3026;53.612;7.278;2024-02-28T08:49:41;101943.63;;;4.68;100.00
5996;BME280;3026;53.612;7.278;2024-02-28T08:52:08;101950.53;;;4.73;100.00
5996;BME280;3026;53.612;7.278;2024-02-28T08:54:35;101952.06;;;4.77;100.00
5996;BME280;3026;53.612;7.278;2024-02-28T08:57:02;101945.44;;;4.81;100.00
5996;BME280;3026;53.612;7.278;2024-02-28T08:59:32;101951.50;;;4.84;100.00
5996;BME280;3026;53.612;7.278;2024-02-28T09:01:59;101951.38;;;4.86;100.00
5996;BME280;3026;53.612;7.278;2024-02-28T09:04:28;101947.72;;;4.87;100.00
5996;BME280;3026;53.612;7.278;2024-02-28T09:06:56;101947.50;;;4.90;100.00
5996;BME280;3026;53.612;7.278;2024-02-28T09:09:25;101946.41;;;4.92;100.00
5996;BME280;3026;53.612;7.278;2024-02-28T09:11:52;101950.72;;;4.95;100.00
5996;BME280;3026;53.612;7.278;2024-02-28T09:14:19;101945.13;;;4.98;100.00
5996;BME280;3026;53.612;7.278;2024-02-28T09:16:48;101950.31;;;5.01;100.00
5996;BME280;3026;53.612;7.278;2024-02-28T09:19:19;101949.22;;;5.04;100.00
5996;BME280;3026;53.612;7.278;2024-02-28T09:21:46;101941.00;;;5.05;100.00
5996;BME280;3026;53.612;7.278;2024-02-28T09:24:13;101946.09;;;5.10;100.00
5996;BME280;3026;53.612;7.278;2024-02-28T09:26:41;101940.56;;;5.11;100.00
5996;BME280;3026;53.612;7.278;2024-02-28T09:29:09;101931.25;;;5.15;100.00
5996;BME280;3026;53.612;7.278;2024-02-28T09:31:36;101934.47;;;5.20;100.00
5996;BME280;3026;53.612;7.278;2024-02-28T09:34:06;101933.41;;;5.23;100.00
5996;BME280;3026;53.612;7.278;2024-02-28T09:36:40;101925.19;;;5.24;100.00
5996;BME280;3026;53.612;7.278;2024-02-28T09:39:08;101930.13;;;5.31;100.00
5996;BME280;3026;53.612;7.278;2024-02-28T09:41:35;101929.91;;;5.34;100.00
5996;BME280;3026;53.612;7.278;2024-02-28T09:44:05;101922.09;;;5.42;100.00
5996;BME280;3026;53.612;7.278;2024-02-28T09:46:34;101938.84;;;5.47;100.00
5996;BME280;3026;53.612;7.278;2024-02-28T09:49:04;101925.72;;;5.53;100.00
5996;BME280;3026;53.612;7.278;2024-02-28T09:51:34;101933.28;;;5.61;100.00
5996;BME280;3026;53.612;7.278;2024-02-28T09:54:01;101934.03;;;5.63;100.00
5996;BME280;3026;53.612;7.278;2024-02-28T09:56:33;101932.81;;;5.67;100.00
5996;BME280;3026;53.612;7.278;2024-02-28T09:59:01;101941.72;;;5.69;100.00
5996;BME280;3026;53.612;7.278;2024-02-28T10:01:37;101935.19;;;5.72;100.00
5996;BME280;3026;53.612;7.278;2024-02-28T10:04:15;101936.06;;;5.72;100.00
5996;BME280;3026;53.612;7.278;2024-02-28T10:06:46;101936.69;;;5.76;100.00
5996;BME280;3026;53.612;7.278;2024-02-28T10:09:14;101928.44;;;5.77;100.00
5996;BME280;3026;53.612;7.278;2024-02-28T10:11:42;101931.91;;;5.79;100.00
5996;BME280;3026;53.612;7.278;2024-02-28T10:14:10;101939.56;;;5.85;100.00
5996;BME280;3026;53.612;7.278;2024-02-28T10:16:38;101945.31;;;5.94;100.00
5996;BME280;3026;53.612;7.278;2024-02-28T10:19:06;101947.66;;;5.98;100.00
5996;BME280;3026;53.612;7.278;2024-02-28T10:21:34;101953.69;;;6.02;100.00
5996;BME280;3026;53.612;7.278;2024-02-28T10:24:02;101963.34;;;6.06;100.00
5996;BME280;3026;53.612;7.278;2024-02-28T10:26:30;101967.53;;;6.10;100.00
5996;BME280;3026;53.612;7.278;2024-02-28T10:29:03;101963.84;;;6.11;100.00
5996;BME280;3026;53.612;7.278;2024-02-28T10:31:33;101959.06;;;6.14;100.00
5996;BME280;3026;53.612;7.278;2024-02-28T10:34:01;101949.72;;;6.19;100.00
5996;BME280;3026;53.612;7.278;2024-02-28T10:36:31;101953.78;;;6.24;100.00
5996;BME280;3026;53.612;7.278;2024-02-28T10:39:00;101958.75;;;6.30;100.00
5996;BME280;3026;53.612;7.278;2024-02-28T10:41:29;101960.47;;;6.31;100.00
5996;BME280;3026;53.612;7.278;2024-02-28T10:43:59;101960.47;;;6.31;100.00
5996;BME280;3026;53.612;7.278;2024-02-28T10:46:27;101963.91;;;6.33;100.00
5996;BME280;3026;53.612;7.278;2024-02-28T10:48:54;101965.44;;;6.37;100.00
5996;BME280;3026;53.612;7.278;2024-02-28T10:51:24;101963.22;;;6.42;100.00
5996;BME280;3026;53.612;7.278;2024-02-28T10:54:01;101962.97;;;6.46;100.00
5996;BME280;3026;53.612;7.278;2024-02-28T10:56:31;101962.50;;;6.52;100.00
5996;BME280;3026;53.612;7.278;2024-02-28T10:58:59;101971.38;;;6.54;100.00
5996;BME280;3026;53.612;7.278;2024-02-28T11:01:26;101968.31;;;6.58;100.00
5996;BME280;3026;53.612;7.278;2024-02-28T11:03:55;101957.88;;;6.65;100.00
5996;BME280;3026;53.612;7.278;2024-02-28T11:06:24;101959.34;;;6.69;100.00
5996;BME280;3026;53.612;7.278;2024-02-28T11:08:51;101957.38;;;6.71;100.00
5996;BME280;3026;53.612;7.278;2024-02-28T11:11:20;101960.84;;;6.73;100.00
5996;BME280;3026;53.612;7.278;2024-02-28T11:13:57;101958.00;;;6.75;100.00
5996;BME280;3026;53.612;7.278;2024-02-28T11:16:27;101954.94;;;6.79;100.00
5996;BME280;3026;53.612;7.278;2024-02-28T11:18:54;101957.91;;;6.87;100.00
5996;BME280;3026;53.612;7.278;2024-02-28T11:21:25;101946.56;;;6.93;100.00
5996;BME280;3026;53.612;7.278;2024-02-28T11:23:57;101947.81;;;7.00;100.00
5996;BME280;3026;53.612;7.278;2024-02-28T11:26:24;101950.78;;;7.09;100.00
5996;BME280;3026;53.612;7.278;2024-02-28T11:28:52;101938.53;;;7.14;100.00
5996;BME280;3026;53.612;7.278;2024-02-28T11:31:21;101940.66;;;7.22;100.00
5996;BME280;3026;53.612;7.278;2024-02-28T11:33:48;101935.69;;;7.27;100.00
5996;BME280;3026;53.612;7.278;2024-02-28T11:36:15;101936.44;;;7.29;100.00
5996;BME280;3026;53.612;7.278;2024-02-28T11:38:43;101937.19;;;7.31;100.00
5996;BME280;3026;53.612;7.278;2024-02-28T11:41:10;101938.66;;;7.35;100.00
5996;BME280;3026;53.612;7.278;2024-02-28T11:43:37;101930.53;;;7.35;100.00
5996;BME280;3026;53.612;7.278;2024-02-28T11:46:08;101935.69;;;7.38;100.00
5996;BME280;3026;53.612;7.278;2024-02-28T11:48:37;101934.69;;;7.39;100.00
5996;BME280;3026;53.612;7.278;2024-02-28T11:51:04;101924.63;;;7.41;100.00
5996;BME280;3026;53.612;7.278;2024-02-28T11:53:31;101926.34;;;7.42;100.00
5996;BME280;3026;53.612;7.278;2024-02-28T11:56:00;101919.78;;;7.45;100.00
5996;BME280;3026;53.612;7.278;2024-02-28T11:58:27;101929.66;;;7.46;100.00
5996;BME280;3026;53.612;7.278;2024-02-28T12:00:55;101929.53;;;7.47;100.00
5996;BME280;3026;53.612;7.278;2024-02-28T12:03:22;101923.81;;;7.50;100.00
5996;BME280;3026;53.612;7.278;2024-02-28T12:05:56;101921.63;;;7.55;100.00
5996;BME280;3026;53.612;7.278;2024-02-28T12:08:30;101919.09;;;7.64;100.00
5996;BME280;3026;53.612;7.278;2024-02-28T12:11:06;101923.06;;;7.71;100.00
5996;BME280;3026;53.612;7.278;2024-02-28T12:13:33;101920.06;;;7.74;100.00
5996;BME280;3026;53.612;7.278;2024-02-28T12:16:01;101918.13;;;7.76;100.00
5996;BME280;3026;53.612;7.278;2024-02-28T12:18:28;101926.13;;;7.77;100.00
5996;BME280;3026;53.612;7.278;2024-02-28T12:20:58;101919.56;;;7.80;100.00
5996;BME280;3026;53.612;7.278;2024-02-28T12:23:25;101917.31;;;7.85;100.00
5996;BME280;3026;53.612;7.278;2024-02-28T12:25:52;101924.25;;;7.89;100.00
5996;BME280;3026;53.612;7.278;2024-02-28T12:28:21;101908.53;;;7.93;100.00
5996;BME280;3026;53.612;7.278;2024-02-28T12:30:48;101905.41;;;7.97;100.00
5996;BME280;3026;53.612;7.278;2024-02-28T12:33:15;101918.00;;;7.98;100.00
5996;BME280;3026;53.612;7.278;2024-02-28T12:35:47;101907.16;;;7.98;100.00
5996;BME280;3026;53.612;7.278;2024-02-28T12:38:16;101902.47;;;8.00;100.00
5996;BME280;3026;53.612;7.278;2024-02-28T12:40:43;101902.56;;;7.99;100.00
5996;BME280;3026;53.612;7.278;2024-02-28T12:43:11;101907.16;;;7.98;100.00
5996;BME280;3026;53.612;7.278;2024-02-28T12:45:42;101907.41;;;7.95;100.00
5996;BME280;3026;53.612;7.278;2024-02-28T12:48:09;101905.69;;;7.94;100.00
5996;BME280;3026;53.612;7.278;2024-02-28T12:50:36;101906.69;;;7.93;100.00
5996;BME280;3026;53.612;7.278;2024-02-28T12:53:03;101903.97;;;7.93;100.00
5996;BME280;3026;53.612;7.278;2024-02-28T12:55:33;101901.97;;;7.95;100.00
5996;BME280;3026;53.612;7.278;2024-02-28T12:58:00;101902.84;;;7.96;100.00
5996;BME280;3026;53.612;7.278;2024-02-28T13:00:31;101898.03;;;7.99;100.00
5996;BME280;3026;53.612;7.278;2024-02-28T13:02:59;101895.19;;;8.01;100.00
5996;BME280;3026;53.612;7.278;2024-02-28T13:05:28;101893.78;;;8.06;100.00
5996;BME280;3026;53.612;7.278;2024-02-28T13:07:55;101895.28;;;8.10;100.00
5996;BME280;3026;53.612;7.278;2024-02-28T13:10:23;101890.41;;;8.14;100.00
5996;BME280;3026;53.612;7.278;2024-02-28T13:12:53;101890.28;;;8.15;100.00
5996;BME280;3026;53.612;7.278;2024-02-28T13:15:20;101891.00;;;8.17;100.00